TimeEST,TemperatureF,Dew PointF,Humidity,Sea Level PressureIn,VisibilityMPH,Wind Direction,Wind SpeedMPH,Gust SpeedMPH,PrecipitationIn,Events,Conditions,WindDirDegrees,DateUTC
12:53 AM,50.0,46.9,89,30.49,9.0,NE,4.6,-,N/A,,Overcast,40,2013-01-10 05:53:00
1:53 AM,51.1,48.0,89,30.47,10.0,NE,4.6,-,N/A,,Overcast,50,2013-01-10 06:53:00
2:36 AM,51.8,48.2,88,30.46,10.0,NE,4.6,-,N/A,,Mostly Cloudy,50,2013-01-10 07:36:00
2:53 AM,51.1,48.0,89,30.48,10.0,East,3.5,-,N/A,,Scattered Clouds,100,2013-01-10 07:53:00
3:53 AM,50.0,48.0,93,30.47,8.0,Calm,Calm,-,N/A,,Mostly Cloudy,0,2013-01-10 08:53:00
4:50 AM,50.0,48.2,94,30.44,8.0,Calm,Calm,-,N/A,,Overcast,0,2013-01-10 09:50:00
4:53 AM,50.0,48.0,93,30.45,8.0,Calm,Calm,-,N/A,,Mostly Cloudy,0,2013-01-10 09:53:00
5:10 AM,48.2,46.4,93,30.44,7.0,Calm,Calm,-,N/A,,Scattered Clouds,0,2013-01-10 10:10:00
5:53 AM,48.9,46.9,93,30.45,7.0,NE,3.5,-,N/A,,Partly Cloudy,50,2013-01-10 10:53:00
6:53 AM,48.9,46.9,93,30.45,6.0,Calm,Calm,-,N/A,,Scattered Clouds,0,2013-01-10 11:53:00
7:53 AM,48.9,46.9,93,30.45,8.0,NNE,3.5,-,N/A,,Scattered Clouds,30,2013-01-10 12:53:00
8:53 AM,50.0,46.9,89,30.46,10.0,NNE,3.5,-,N/A,,Mostly Cloudy,30,2013-01-10 13:53:00
9:53 AM,53.1,48.0,83,30.46,10.0,Variable,3.5,-,N/A,,Overcast,0,2013-01-10 14:53:00
10:53 AM,54.0,46.9,77,30.45,10.0,NE,5.8,-,N/A,,Mostly Cloudy,50,2013-01-10 15:53:00
11:53 AM,55.0,46.9,74,30.42,10.0,NE,4.6,-,N/A,,Overcast,50,2013-01-10 16:53:00
12:53 PM,57.0,48.0,72,30.37,10.0,ENE,6.9,-,N/A,,Overcast,60,2013-01-10 17:53:00
1:53 PM,57.9,48.0,70,30.35,10.0,Variable,3.5,-,N/A,,Overcast,0,2013-01-10 18:53:00
2:53 PM,62.1,50.0,65,30.33,10.0,Calm,Calm,-,N/A,,Overcast,0,2013-01-10 19:53:00
3:53 PM,61.0,48.9,64,30.33,10.0,NE,3.5,-,N/A,,Scattered Clouds,50,2013-01-10 20:53:00
4:53 PM,60.1,48.9,67,30.32,10.0,Calm,Calm,-,N/A,,Clear,0,2013-01-10 21:53:00
5:53 PM,57.9,48.9,72,30.30,10.0,Calm,Calm,-,N/A,,Clear,0,2013-01-10 22:53:00
6:53 PM,55.9,48.9,77,30.30,10.0,Calm,Calm,-,N/A,,Overcast,0,2013-01-10 23:53:00
7:53 PM,54.0,48.9,83,30.28,10.0,Calm,Calm,-,N/A,,Mostly Cloudy,0,2013-01-11 00:53:00
8:53 PM,51.1,48.0,89,30.27,10.0,Calm,Calm,-,N/A,,Clear,0,2013-01-11 01:53:00
9:53 PM,51.1,48.9,92,30.22,10.0,Calm,Calm,-,N/A,,Overcast,0,2013-01-11 02:53:00
10:53 PM,52.0,48.0,86,30.21,10.0,Calm,Calm,-,N/A,,Overcast,0,2013-01-11 03:53:00
11:53 PM,52.0,48.0,86,30.17,10.0,Calm,Calm,-,N/A,,Mostly Cloudy,0,2013-01-11 04:53:00